45TE weather

Deussen Field
Ponder, Texas, United States

Public forecast

Using degrees Fahrenheit for public forecast. Weather courtesy of forecast.io.

Closest aviation weather report (METAR) to Deussen Field

Closest report is Denton Municipal Airport, 6.4 nm (11.9 km) E. Retrieved 2020/08/08 21:53 UTC (1 hour ago):

KDTO 082153Z 18010G19KT 10SM CLR 37/17 A3001 RMK AO2 SLP153 T03670167

Closest aviation forecast (TAF) to Deussen Field

Closest forecast is Fort Worth Alliance Airport, 12.3 nm (22.7 km) S. Retrieved 2020/08/08 18:21 UTC (5 hours ago):

TAF KAFW 081720Z 0818/0918 17012KT P6SM FEW250